sensor_id;sensor_type;location;lat;lon;timestamp;pressure;altitude;pressure_sealevel;temperature;humidity
24306;BME280;12423;48.768;8.850;2023-03-23T00:01:24;96394.25;;;13.28;79.01
24306;BME280;12423;48.768;8.850;2023-03-23T00:03:27;96382.53;;;13.21;79.52
24306;BME280;12423;48.768;8.850;2023-03-23T00:05:29;96383.88;;;13.17;79.83
24306;BME280;12423;48.768;8.850;2023-03-23T00:07:30;96377.66;;;13.16;80.39
24306;BME280;12423;48.768;8.850;2023-03-23T00:09:31;96376.50;;;13.19;80.53
24306;BME280;12423;48.768;8.850;2023-03-23T00:11:35;96375.47;;;13.12;81.00
24306;BME280;12423;48.768;8.850;2023-03-23T00:13:36;96368.09;;;13.14;80.89
24306;BME280;12423;48.768;8.850;2023-03-23T00:15:37;96376.31;;;13.12;81.25
24306;BME280;12423;48.768;8.850;2023-03-23T00:17:42;96374.13;;;13.07;81.73
24306;BME280;12423;48.768;8.850;2023-03-23T00:19:44;96374.47;;;13.13;82.28
24306;BME280;12423;48.768;8.850;2023-03-23T00:21:47;96369.09;;;13.13;82.66
24306;BME280;12423;48.768;8.850;2023-03-23T00:23:48;96369.06;;;13.04;83.22
24306;BME280;12423;48.768;8.850;2023-03-23T00:25:52;96379.47;;;13.07;83.27
24306;BME280;12423;48.768;8.850;2023-03-23T00:27:53;96370.28;;;13.10;83.12
24306;BME280;12423;48.768;8.850;2023-03-23T00:29:54;96364.75;;;13.03;83.88
24306;BME280;12423;48.768;8.850;2023-03-23T00:31:55;96362.38;;;13.00;83.47
24306;BME280;12423;48.768;8.850;2023-03-23T00:33:58;96366.88;;;13.00;84.57
24306;BME280;12423;48.768;8.850;2023-03-23T00:36:01;96358.00;;;12.99;84.52
24306;BME280;12423;48.768;8.850;2023-03-23T00:38:03;96351.31;;;12.95;84.66
24306;BME280;12423;48.768;8.850;2023-03-23T00:40:05;96358.81;;;12.91;85.83
24306;BME280;12423;48.768;8.850;2023-03-23T00:42:15;96355.66;;;12.96;85.03
24306;BME280;12423;48.768;8.850;2023-03-23T00:44:17;96343.28;;;12.95;85.22
24306;BME280;12423;48.768;8.850;2023-03-23T00:46:18;96339.91;;;12.93;85.81
24306;BME280;12423;48.768;8.850;2023-03-23T00:48:23;96341.59;;;12.94;86.01
24306;BME280;12423;48.768;8.850;2023-03-23T00:50:24;96336.88;;;12.88;85.73
24306;BME280;12423;48.768;8.850;2023-03-23T00:52:25;96328.66;;;12.89;85.28
24306;BME280;12423;48.768;8.850;2023-03-23T00:54:26;96334.84;;;12.90;85.39
24306;BME280;12423;48.768;8.850;2023-03-23T00:56:27;96331.00;;;12.84;85.32
24306;BME280;12423;48.768;8.850;2023-03-23T00:58:28;96334.50;;;12.77;86.03
24306;BME280;12423;48.768;8.850;2023-03-23T01:00:29;96334.81;;;12.73;86.58
24306;BME280;12423;48.768;8.850;2023-03-23T01:02:32;96332.84;;;12.76;86.52
24306;BME280;12423;48.768;8.850;2023-03-23T01:04:32;96332.84;;;12.76;86.03
24306;BME280;12423;48.768;8.850;2023-03-23T01:06:38;96336.66;;;12.73;86.10
24306;BME280;12423;48.768;8.850;2023-03-23T01:08:43;96330.81;;;12.78;85.44
24306;BME280;12423;48.768;8.850;2023-03-23T01:10:48;96332.66;;;12.77;86.91
24306;BME280;12423;48.768;8.850;2023-03-23T01:12:49;96332.50;;;12.79;86.54
24306;BME280;12423;48.768;8.850;2023-03-23T01:14:51;96332.66;;;12.77;86.82
24306;BME280;12423;48.768;8.850;2023-03-23T01:16:52;96331.13;;;12.75;86.42
24306;BME280;12423;48.768;8.850;2023-03-23T01:18:53;96337.69;;;12.72;86.52
24306;BME280;12423;48.768;8.850;2023-03-23T01:20:54;96336.94;;;12.62;86.96
24306;BME280;12423;48.768;8.850;2023-03-23T01:22:55;96341.00;;;12.66;87.32
24306;BME280;12423;48.768;8.850;2023-03-23T01:25:01;96331.44;;;12.63;85.99
24306;BME280;12423;48.768;8.850;2023-03-23T01:27:02;96324.25;;;12.64;86.62
24306;BME280;12423;48.768;8.850;2023-03-23T01:29:07;96319.41;;;12.67;86.00
24306;BME280;12423;48.768;8.850;2023-03-23T01:31:13;96309.00;;;12.64;87.16
24306;BME280;12423;48.768;8.850;2023-03-23T01:33:14;96302.59;;;12.57;86.41
24306;BME280;12423;48.768;8.850;2023-03-23T01:35:16;96305.81;;;12.61;87.45
24306;BME280;12423;48.768;8.850;2023-03-23T01:37:17;96313.69;;;12.54;87.24
24306;BME280;12423;48.768;8.850;2023-03-23T01:39:19;96303.28;;;12.51;87.87
24306;BME280;12423;48.768;8.850;2023-03-23T01:41:21;96309.00;;;12.56;87.67
24306;BME280;12423;48.768;8.850;2023-03-23T01:43:22;96293.41;;;12.51;88.17
24306;BME280;12423;48.768;8.850;2023-03-23T01:45:34;96298.56;;;12.45;88.83
24306;BME280;12423;48.768;8.850;2023-03-23T01:47:35;96294.16;;;12.35;89.68
24306;BME280;12423;48.768;8.850;2023-03-23T01:49:41;96295.53;;;12.40;90.07
24306;BME280;12423;48.768;8.850;2023-03-23T01:51:48;96300.88;;;12.40;89.95
24306;BME280;12423;48.768;8.850;2023-03-23T01:53:57;96300.38;;;12.36;90.68
24306;BME280;12423;48.768;8.850;2023-03-23T01:56:01;96299.53;;;12.35;90.49
24306;BME280;12423;48.768;8.850;2023-03-23T01:58:03;96301.69;;;12.32;90.25
24306;BME280;12423;48.768;8.850;2023-03-23T02:00:07;96302.72;;;12.31;91.24
24306;BME280;12423;48.768;8.850;2023-03-23T02:02:26;96303.34;;;12.25;90.72
24306;BME280;12423;48.768;8.850;2023-03-23T02:04:30;96294.44;;;12.16;91.11
24306;BME280;12423;48.768;8.850;2023-03-23T02:06:32;96300.81;;;12.23;91.53
24306;BME280;12423;48.768;8.850;2023-03-23T02:08:54;96288.53;;;12.12;91.72
24306;BME280;12423;48.768;8.850;2023-03-23T02:10:56;96290.03;;;12.07;91.74
24306;BME280;12423;48.768;8.850;2023-03-23T02:13:02;96291.22;;;12.12;91.76
24306;BME280;12423;48.768;8.850;2023-03-23T02:15:04;96288.06;;;12.17;92.43
24306;BME280;12423;48.768;8.850;2023-03-23T02:17:10;96292.75;;;12.15;93.31
24306;BME280;12423;48.768;8.850;2023-03-23T02:30:45;96266.72;;;11.73;94.80
24306;BME280;12423;48.768;8.850;2023-03-23T02:36:09;96261.72;;;11.70;95.08
24306;BME280;12423;48.768;8.850;2023-03-23T02:37:48;96257.88;;;11.72;95.30
24306;BME280;12423;48.768;8.850;2023-03-23T02:39:56;96247.31;;;11.71;95.76
24306;BME280;12423;48.768;8.850;2023-03-23T02:42:02;96247.69;;;11.76;95.36
24306;BME280;12423;48.768;8.850;2023-03-23T02:44:07;96240.06;;;11.63;95.74
24306;BME280;12423;48.768;8.850;2023-03-23T02:46:11;96236.88;;;11.59;96.21
24306;BME280;12423;48.768;8.850;2023-03-23T02:48:15;96227.34;;;11.57;96.08
24306;BME280;12423;48.768;8.850;2023-03-23T02:50:23;96228.66;;;11.53;96.04
24306;BME280;12423;48.768;8.850;2023-03-23T02:52:30;96238.31;;;11.46;96.99
24306;BME280;12423;48.768;8.850;2023-03-23T02:54:34;96238.25;;;11.64;97.23
24306;BME280;12423;48.768;8.850;2023-03-23T02:56:36;96239.63;;;11.68;97.09
24306;BME280;12423;48.768;8.850;2023-03-23T02:58:43;96242.28;;;11.68;96.51
24306;BME280;12423;48.768;8.850;2023-03-23T03:00:44;96243.66;;;11.72;95.93
24306;BME280;12423;48.768;8.850;2023-03-23T03:02:52;96240.97;;;11.72;95.84
24306;BME280;12423;48.768;8.850;2023-03-23T03:05:04;96241.16;;;11.70;96.17
24306;BME280;12423;48.768;8.850;2023-03-23T03:07:32;96241.97;;;11.71;95.52
24306;BME280;12423;48.768;8.850;2023-03-23T03:11:48;96240.97;;;11.72;95.78
24306;BME280;12423;48.768;8.850;2023-03-23T03:16:07;96236.00;;;11.77;94.94
24306;BME280;12423;48.768;8.850;2023-03-23T03:18:20;96235.84;;;11.78;95.62
24306;BME280;12423;48.768;8.850;2023-03-23T03:20:25;96228.63;;;11.79;95.96
24306;BME280;12423;48.768;8.850;2023-03-23T03:22:28;96226.44;;;11.74;95.87
24306;BME280;12423;48.768;8.850;2023-03-23T03:24:31;96226.59;;;11.73;96.18
24306;BME280;12423;48.768;8.850;2023-03-23T03:26:33;96228.13;;;11.75;96.74
24306;BME280;12423;48.768;8.850;2023-03-23T03:28:55;96233.53;;;11.57;97.64
24306;BME280;12423;48.768;8.850;2023-03-23T03:30:58;96231.53;;;11.59;98.22
24306;BME280;12423;48.768;8.850;2023-03-23T03:33:01;96233.69;;;11.56;97.95
24306;BME280;12423;48.768;8.850;2023-03-23T03:35:05;96223.19;;;11.62;98.26
24306;BME280;12423;48.768;8.850;2023-03-23T03:37:06;96218.81;;;11.53;98.37
24306;BME280;12423;48.768;8.850;2023-03-23T03:39:09;96220.91;;;11.41;98.62
24306;BME280;12423;48.768;8.850;2023-03-23T03:41:11;96223.97;;;11.55;98.50
24306;BME280;12423;48.768;8.850;2023-03-23T03:43:12;96232.00;;;11.55;98.75
24306;BME280;12423;48.768;8.850;2023-03-23T03:45:17;96225.81;;;11.54;99.07
24306;BME280;12423;48.768;8.850;2023-03-23T03:47:18;96215.50;;;11.59;99.02
24306;BME280;12423;48.768;8.850;2023-03-23T03:49:19;96218.88;;;11.61;99.18
24306;BME280;12423;48.768;8.850;2023-03-23T03:51:20;96224.38;;;11.60;99.19
24306;BME280;12423;48.768;8.850;2023-03-23T03:53:24;96226.03;;;11.61;99.30
24306;BME280;12423;48.768;8.850;2023-03-23T03:55:26;96225.88;;;11.62;99.19
24306;BME280;12423;48.768;8.850;2023-03-23T03:57:29;96222.06;;;11.65;99.50
24306;BME280;12423;48.768;8.850;2023-03-23T03:59:39;96230.97;;;11.74;99.14
24306;BME280;12423;48.768;8.850;2023-03-23T04:02:00;96224.78;;;11.73;99.44
24306;BME280;12423;48.768;8.850;2023-03-23T04:04:01;96231.59;;;11.68;98.98
24306;BME280;12423;48.768;8.850;2023-03-23T04:06:07;96227.25;;;11.67;99.50
24306;BME280;12423;48.768;8.850;2023-03-23T04:08:09;96223.75;;;11.74;99.13
24306;BME280;12423;48.768;8.850;2023-03-23T04:10:11;96222.88;;;11.66;99.19
24306;BME280;12423;48.768;8.850;2023-03-23T04:12:15;96220.53;;;11.62;99.59
24306;BME280;12423;48.768;8.850;2023-03-23T04:14:32;96223.19;;;11.62;99.66
24306;BME280;12423;48.768;8.850;2023-03-23T04:16:33;96218.00;;;11.61;100.00
24306;BME280;12423;48.768;8.850;2023-03-23T04:18:35;96224.88;;;11.64;100.00
24306;BME280;12423;48.768;8.850;2023-03-23T04:20:38;96219.66;;;11.54;100.00
24306;BME280;12423;48.768;8.850;2023-03-23T04:22:39;96215.66;;;11.58;100.00
24306;BME280;12423;48.768;8.850;2023-03-23T04:24:44;96209.16;;;11.60;100.00
24306;BME280;12423;48.768;8.850;2023-03-23T04:26:51;96203.28;;;11.57;100.00
24306;BME280;12423;48.768;8.850;2023-03-23T04:29:00;96203.13;;;11.58;100.00
24306;BME280;12423;48.768;8.850;2023-03-23T04:31:08;96205.97;;;11.57;100.00
24306;BME280;12423;48.768;8.850;2023-03-23T04:33:11;96205.66;;;11.60;100.00
24306;BME280;12423;48.768;8.850;2023-03-23T04:35:19;96202.13;;;11.59;100.00
24306;BME280;12423;48.768;8.850;2023-03-23T04:37:27;96208.84;;;11.64;100.00
24306;BME280;12423;48.768;8.850;2023-03-23T04:39:30;96213.00;;;11.66;100.00
24306;BME280;12423;48.768;8.850;2023-03-23T04:41:36;96220.88;;;11.68;100.00
24306;BME280;12423;48.768;8.850;2023-03-23T04:44:07;96228.28;;;11.74;100.00
24306;BME280;12423;48.768;8.850;2023-03-23T04:46:20;96231.94;;;11.73;100.00
24306;BME280;12423;48.768;8.850;2023-03-23T04:48:24;96228.94;;;11.76;100.00
24306;BME280;12423;48.768;8.850;2023-03-23T04:50:35;96225.59;;;11.74;100.00
24306;BME280;12423;48.768;8.850;2023-03-23T04:52:46;96226.59;;;11.73;99.76
24306;BME280;12423;48.768;8.850;2023-03-23T04:54:49;96227.81;;;11.78;100.00
24306;BME280;12423;48.768;8.850;2023-03-23T04:56:51;96222.47;;;11.78;100.00
24306;BME280;12423;48.768;8.850;2023-03-23T04:58:53;96232.66;;;11.75;100.00
24306;BME280;12423;48.768;8.850;2023-03-23T05:01:05;96221.78;;;11.76;99.92
24306;BME280;12423;48.768;8.850;2023-03-23T05:03:11;96224.94;;;11.72;100.00
24306;BME280;12423;48.768;8.850;2023-03-23T05:05:14;96215.56;;;11.76;100.00
24306;BME280;12423;48.768;8.850;2023-03-23T05:07:15;96227.97;;;11.77;100.00
24306;BME280;12423;48.768;8.850;2023-03-23T05:09:19;96224.63;;;11.75;100.00
24306;BME280;12423;48.768;8.850;2023-03-23T05:11:22;96219.78;;;11.78;100.00
24306;BME280;12423;48.768;8.850;2023-03-23T05:13:24;96218.06;;;11.69;100.00
24306;BME280;12423;48.768;8.850;2023-03-23T05:15:28;96217.56;;;11.74;100.00
24306;BME280;12423;48.768;8.850;2023-03-23T05:17:32;96221.78;;;11.76;100.00
24306;BME280;12423;48.768;8.850;2023-03-23T05:19:36;96223.75;;;11.74;100.00
24306;BME280;12423;48.768;8.850;2023-03-23T05:21:46;96229.25;;;11.73;100.00
24306;BME280;12423;48.768;8.850;2023-03-23T05:23:47;96232.00;;;11.81;100.00
24306;BME280;12423;48.768;8.850;2023-03-23T05:25:55;96221.81;;;11.85;99.81
24306;BME280;12423;48.768;8.850;2023-03-23T05:27:58;96222.66;;;11.85;99.62
24306;BME280;12423;48.768;8.850;2023-03-23T05:30:21;96216.13;;;11.88;100.00
24306;BME280;12423;48.768;8.850;2023-03-23T05:32:26;96220.66;;;11.87;100.00
24306;BME280;12423;48.768;8.850;2023-03-23T05:34:33;96220.06;;;11.93;100.00
24306;BME280;12423;48.768;8.850;2023-03-23T05:36:36;96219.91;;;11.95;100.00
24306;BME280;12423;48.768;8.850;2023-03-23T05:38:46;96213.72;;;12.03;99.30
24306;BME280;12423;48.768;8.850;2023-03-23T05:40:50;96226.47;;;12.09;99.15
24306;BME280;12423;48.768;8.850;2023-03-23T05:42:59;96223.97;;;12.15;98.68
24306;BME280;12423;48.768;8.850;2023-03-23T05:45:10;96228.69;;;12.22;98.29
24306;BME280;12423;48.768;8.850;2023-03-23T05:47:14;96230.25;;;12.32;97.13
24306;BME280;12423;48.768;8.850;2023-03-23T05:49:21;96223.09;;;12.58;94.26
24306;BME280;12423;48.768;8.850;2023-03-23T05:51:23;96236.66;;;12.64;94.27
24306;BME280;12423;48.768;8.850;2023-03-23T05:53:24;96234.66;;;12.66;94.75
24306;BME280;12423;48.768;8.850;2023-03-23T05:55:27;96234.31;;;12.61;94.47
24306;BME280;12423;48.768;8.850;2023-03-23T05:57:38;96237.34;;;12.66;94.06
24306;BME280;12423;48.768;8.850;2023-03-23T05:59:43;96234.00;;;12.64;94.24
24306;BME280;12423;48.768;8.850;2023-03-23T06:01:51;96242.38;;;12.69;94.00
24306;BME280;12423;48.768;8.850;2023-03-23T06:03:52;96242.69;;;12.66;94.03
24306;BME280;12423;48.768;8.850;2023-03-23T06:05:58;96252.44;;;12.76;92.70
24306;BME280;12423;48.768;8.850;2023-03-23T06:08:06;96258.63;;;12.76;93.57
24306;BME280;12423;48.768;8.850;2023-03-23T06:10:09;96256.94;;;12.75;93.37
24306;BME280;12423;48.768;8.850;2023-03-23T06:12:12;96255.59;;;12.71;93.31
24306;BME280;12423;48.768;8.850;2023-03-23T06:14:22;96263.81;;;12.69;93.69
24306;BME280;12423;48.768;8.850;2023-03-23T06:16:23;96272.69;;;12.78;92.61
24306;BME280;12423;48.768;8.850;2023-03-23T06:18:27;96270.84;;;12.70;93.85
24306;BME280;12423;48.768;8.850;2023-03-23T06:20:44;96283.22;;;12.71;94.71
24306;BME280;12423;48.768;8.850;2023-03-23T06:23:06;96283.22;;;12.63;96.48
24306;BME280;12423;48.768;8.850;2023-03-23T06:25:10;96280.84;;;12.60;97.61
24306;BME280;12423;48.768;8.850;2023-03-23T06:27:18;96280.00;;;12.51;99.29
24306;BME280;12423;48.768;8.850;2023-03-23T06:29:20;96281.84;;;12.51;100.00
24306;BME280;12423;48.768;8.850;2023-03-23T06:31:27;96287.53;;;12.48;100.00
24306;BME280;12423;48.768;8.850;2023-03-23T06:33:28;96283.31;;;12.45;100.00
24306;BME280;12423;48.768;8.850;2023-03-23T06:35:53;96289.22;;;12.57;99.02
24306;BME280;12423;48.768;8.850;2023-03-23T06:38:04;96288.22;;;12.58;100.00
24306;BME280;12423;48.768;8.850;2023-03-23T06:40:13;96297.25;;;12.57;100.00
24306;BME280;12423;48.768;8.850;2023-03-23T06:42:16;96300.47;;;12.61;100.00
24306;BME280;12423;48.768;8.850;2023-03-23T06:44:22;96286.53;;;12.57;100.00
24306;BME280;12423;48.768;8.850;2023-03-23T06:46:23;96295.78;;;12.63;100.00
24306;BME280;12423;48.768;8.850;2023-03-23T06:48:27;96299.63;;;12.68;100.00
24306;BME280;12423;48.768;8.850;2023-03-23T06:50:28;96306.53;;;12.71;100.00
24306;BME280;12423;48.768;8.850;2023-03-23T06:52:30;96310.03;;;12.71;100.00
24306;BME280;12423;48.768;8.850;2023-03-23T06:54:31;96303.34;;;12.67;100.00
24306;BME280;12423;48.768;8.850;2023-03-23T06:56:34;96298.28;;;12.64;100.00
24306;BME280;12423;48.768;8.850;2023-03-23T06:58:36;96305.00;;;12.68;100.00
24306;BME280;12423;48.768;8.850;2023-03-23T07:00:38;96302.34;;;12.77;100.00
24306;BME280;12423;48.768;8.850;2023-03-23T07:02:40;96300.50;;;12.69;100.00
24306;BME280;12423;48.768;8.850;2023-03-23T07:04:42;96309.03;;;12.72;100.00
24306;BME280;12423;48.768;8.850;2023-03-23T07:06:49;96314.06;;;12.67;100.00
24306;BME280;12423;48.768;8.850;2023-03-23T07:08:50;96322.09;;;12.67;100.00
24306;BME280;12423;48.768;8.850;2023-03-23T07:10:56;96323.91;;;12.67;100.00
24306;BME280;12423;48.768;8.850;2023-03-23T07:13:01;96333.78;;;12.66;100.00
24306;BME280;12423;48.768;8.850;2023-03-23T07:15:09;96338.31;;;12.66;100.00
24306;BME280;12423;48.768;8.850;2023-03-23T07:17:13;96339.16;;;12.66;100.00
24306;BME280;12423;48.768;8.850;2023-03-23T07:19:24;96338.50;;;12.72;100.00
24306;BME280;12423;48.768;8.850;2023-03-23T07:21:26;96347.22;;;12.75;100.00
24306;BME280;12423;48.768;8.850;2023-03-23T07:23:29;96350.56;;;12.77;100.00
24306;BME280;12423;48.768;8.850;2023-03-23T07:25:38;96358.13;;;12.81;100.00
24306;BME280;12423;48.768;8.850;2023-03-23T07:27:39;96361.81;;;12.88;100.00
24306;BME280;12423;48.768;8.850;2023-03-23T07:29:41;96367.75;;;13.00;100.00
24306;BME280;12423;48.768;8.850;2023-03-23T07:31:49;96366.75;;;13.09;100.00
24306;BME280;12423;48.768;8.850;2023-03-23T07:33:50;96364.75;;;13.20;100.00
24306;BME280;12423;48.768;8.850;2023-03-23T07:35:52;96368.50;;;13.35;100.00
24306;BME280;12423;48.768;8.850;2023-03-23T07:37:53;96363.81;;;13.62;100.00
24306;BME280;12423;48.768;8.850;2023-03-23T07:39:55;96364.16;;;13.67;100.00
24306;BME280;12423;48.768;8.850;2023-03-23T07:41:57;96353.06;;;13.87;100.00
24306;BME280;12423;48.768;8.850;2023-03-23T07:44:16;96352.41;;;14.01;100.00
24306;BME280;12423;48.768;8.850;2023-03-23T07:46:18;96349.00;;;14.07;100.00
24306;BME280;12423;48.768;8.850;2023-03-23T07:48:33;96347.50;;;14.13;100.00
24306;BME280;12423;48.768;8.850;2023-03-23T07:50:34;96350.19;;;14.13;100.00
24306;BME280;12423;48.768;8.850;2023-03-23T07:52:41;96350.16;;;14.21;100.00
24306;BME280;12423;48.768;8.850;2023-03-23T07:54:42;96361.75;;;14.13;100.00
24306;BME280;12423;48.768;8.850;2023-03-23T07:56:58;96365.44;;;14.21;100.00
24306;BME280;12423;48.768;8.850;2023-03-23T07:59:07;96361.25;;;14.18;100.00
24306;BME280;12423;48.768;8.850;2023-03-23T08:01:11;96365.06;;;14.32;100.00
24306;BME280;12423;48.768;8.850;2023-03-23T08:03:15;96353.94;;;14.43;100.00
24306;BME280;12423;48.768;8.850;2023-03-23T08:05:42;96356.13;;;14.48;100.00
24306;BME280;12423;48.768;8.850;2023-03-23T08:08:02;96362.00;;;14.43;100.00
24306;BME280;12423;48.768;8.850;2023-03-23T08:10:25;96362.66;;;14.62;100.00
24306;BME280;12423;48.768;8.850;2023-03-23T08:12:30;96362.31;;;14.48;100.00
24306;BME280;12423;48.768;8.850;2023-03-23T08:15:06;96366.53;;;14.51;100.00
24306;BME280;12423;48.768;8.850;2023-03-23T08:17:29;96370.06;;;14.43;100.00
24306;BME280;12423;48.768;8.850;2023-03-23T08:19:49;96368.13;;;14.29;100.00
24306;BME280;12423;48.768;8.850;2023-03-23T08:22:26;96373.94;;;14.49;100.00
24306;BME280;12423;48.768;8.850;2023-03-23T08:24:43;96378.19;;;14.18;100.00
24306;BME280;12423;48.768;8.850;2023-03-23T08:27:00;96374.84;;;14.16;100.00
24306;BME280;12423;48.768;8.850;2023-03-23T08:29:16;96377.50;;;14.25;100.00
24306;BME280;12423;48.768;8.850;2023-03-23T08:31:31;96374.31;;;14.29;100.00
24306;BME280;12423;48.768;8.850;2023-03-23T08:33:35;96386.22;;;14.27;100.00
24306;BME280;12423;48.768;8.850;2023-03-23T08:35:57;96387.41;;;14.32;100.00
24306;BME280;12423;48.768;8.850;2023-03-23T08:38:17;96395.81;;;14.29;100.00
24306;BME280;12423;48.768;8.850;2023-03-23T08:40:37;96395.31;;;14.26;100.00
24306;BME280;12423;48.768;8.850;2023-03-23T08:43:01;96393.13;;;14.21;100.00
24306;BME280;12423;48.768;8.850;2023-03-23T08:45:23;96393.28;;;14.28;100.00
24306;BME280;12423;48.768;8.850;2023-03-23T08:47:40;96397.53;;;14.06;100.00
24306;BME280;12423;48.768;8.850;2023-03-23T08:49:51;96399.38;;;14.05;100.00
24306;BME280;12423;48.768;8.850;2023-03-23T08:52:19;96402.53;;;14.09;100.00
24306;BME280;12423;48.768;8.850;2023-03-23T08:54:29;96405.38;;;14.15;100.00
24306;BME280;12423;48.768;8.850;2023-03-23T08:56:51;96401.88;;;14.15;100.00
24306;BME280;12423;48.768;8.850;2023-03-23T08:59:07;96401.50;;;14.34;100.00
24306;BME280;12423;48.768;8.850;2023-03-23T09:01:27;96403.31;;;14.59;100.00
24306;BME280;12423;48.768;8.850;2023-03-23T09:03:44;96404.28;;;14.74;100.00
24306;BME280;12423;48.768;8.850;2023-03-23T09:06:07;96408.31;;;14.53;100.00
24306;BME280;12423;48.768;8.850;2023-03-23T09:08:17;96423.63;;;14.53;100.00
24306;BME280;12423;48.768;8.850;2023-03-23T09:10:19;96420.75;;;14.54;100.00
24306;BME280;12423;48.768;8.850;2023-03-23T09:12:20;96419.38;;;14.83;100.00
24306;BME280;12423;48.768;8.850;2023-03-23T09:14:21;96427.13;;;15.09;99.27
24306;BME280;12423;48.768;8.850;2023-03-23T09:16:22;96422.59;;;15.18;97.64
24306;BME280;12423;48.768;8.850;2023-03-23T09:18:23;96426.63;;;15.14;97.25
24306;BME280;12423;48.768;8.850;2023-03-23T09:20:27;96428.81;;;15.42;97.00
24306;BME280;12423;48.768;8.850;2023-03-23T09:22:28;96442.47;;;15.63;95.75
24306;BME280;12423;48.768;8.850;2023-03-23T09:24:30;96447.78;;;15.48;95.76
24306;BME280;12423;48.768;8.850;2023-03-23T09:26:31;96447.97;;;15.47;97.63
24306;BME280;12423;48.768;8.850;2023-03-23T09:28:32;96438.13;;;15.00;96.55
24306;BME280;12423;48.768;8.850;2023-03-23T09:30:37;96442.88;;;14.81;97.06
24306;BME280;12423;48.768;8.850;2023-03-23T09:32:38;96440.88;;;14.83;98.61
24306;BME280;12423;48.768;8.850;2023-03-23T09:34:39;96446.94;;;14.77;99.77
24306;BME280;12423;48.768;8.850;2023-03-23T09:36:43;96453.69;;;14.65;100.00
24306;BME280;12423;48.768;8.850;2023-03-23T09:38:44;96442.25;;;14.54;100.00
24306;BME280;12423;48.768;8.850;2023-03-23T09:47:47;96457.03;;;15.54;99.81
24306;BME280;12423;48.768;8.850;2023-03-23T09:50:27;96469.53;;;15.39;100.00
24306;BME280;12423;48.768;8.850;2023-03-23T09:52:20;96462.50;;;15.38;100.00
24306;BME280;12423;48.768;8.850;2023-03-23T09:54:28;96450.72;;;14.99;100.00
24306;BME280;12423;48.768;8.850;2023-03-23T09:56:33;96457.75;;;15.08;100.00
24306;BME280;12423;48.768;8.850;2023-03-23T10:00:48;96460.03;;;15.28;100.00
24306;BME280;12423;48.768;8.850;2023-03-23T10:03:14;96452.22;;;15.10;100.00
24306;BME280;12423;48.768;8.850;2023-03-23T10:05:55;96434.78;;;14.89;100.00
24306;BME280;12423;48.768;8.850;2023-03-23T10:07:56;96449.69;;;15.08;100.00
24306;BME280;12423;48.768;8.850;2023-03-23T10:10:00;96442.06;;;15.20;100.00
24306;BME280;12423;48.768;8.850;2023-03-23T10:12:12;96447.47;;;15.12;100.00
24306;BME280;12423;48.768;8.850;2023-03-23T10:14:23;96449.47;;;15.18;100.00
24306;BME280;12423;48.768;8.850;2023-03-23T10:16:32;96448.88;;;15.08;100.00
24306;BME280;12423;48.768;8.850;2023-03-23T10:18:41;96431.78;;;15.24;100.00
24306;BME280;12423;48.768;8.850;2023-03-23T10:20:48;96445.41;;;15.22;100.00
24306;BME280;12423;48.768;8.850;2023-03-23T10:23:20;96453.47;;;15.54;100.00
24306;BME280;12423;48.768;8.850;2023-03-23T10:25:29;96455.25;;;15.38;99.51
24306;BME280;12423;48.768;8.850;2023-03-23T10:29:49;96452.47;;;15.86;100.00
24306;BME280;12423;48.768;8.850;2023-03-23T10:32:13;96455.50;;;16.44;96.86
24306;BME280;12423;48.768;8.850;2023-03-23T10:34:21;96456.34;;;16.45;94.14
24306;BME280;12423;48.768;8.850;2023-03-23T10:36:35;96455.97;;;16.48;92.08
24306;BME280;12423;48.768;8.850;2023-03-23T10:38:40;96469.81;;;16.45;92.33
24306;BME280;12423;48.768;8.850;2023-03-23T10:40:57;96466.97;;;16.76;92.51
24306;BME280;12423;48.768;8.850;2023-03-23T10:42:59;96456.94;;;16.55;89.73
24306;BME280;12423;48.768;8.850;2023-03-23T10:47:14;96460.56;;;16.24;91.95
24306;BME280;12423;48.768;8.850;2023-03-23T10:49:20;96469.09;;;16.13;93.41
24306;BME280;12423;48.768;8.850;2023-03-23T10:51:28;96468.03;;;15.99;94.93
24306;BME280;12423;48.768;8.850;2023-03-23T10:54:00;96479.41;;;15.86;96.84
24306;BME280;12423;48.768;8.850;2023-03-23T10:55:59;96457.84;;;15.55;97.16
24306;BME280;12423;48.768;8.850;2023-03-23T10:58:10;96456.13;;;15.62;100.00
24306;BME280;12423;48.768;8.850;2023-03-23T11:02:17;96457.50;;;15.26;100.00
24306;BME280;12423;48.768;8.850;2023-03-23T11:04:18;96461.41;;;15.16;100.00
24306;BME280;12423;48.768;8.850;2023-03-23T11:06:30;96451.44;;;15.24;100.00
24306;BME280;12423;48.768;8.850;2023-03-23T11:08:37;96456.88;;;15.16;100.00
24306;BME280;12423;48.768;8.850;2023-03-23T11:10:42;96457.72;;;15.17;100.00
24306;BME280;12423;48.768;8.850;2023-03-23T11:12:48;96456.25;;;15.37;100.00
24306;BME280;12423;48.768;8.850;2023-03-23T11:14:50;96458.16;;;15.60;100.00
24306;BME280;12423;48.768;8.850;2023-03-23T11:16:59;96459.28;;;15.65;100.00
24306;BME280;12423;48.768;8.850;2023-03-23T11:19:15;96454.06;;;15.95;100.00
24306;BME280;12423;48.768;8.850;2023-03-23T11:21:16;96453.13;;;16.26;100.00
24306;BME280;12423;48.768;8.850;2023-03-23T11:23:24;96442.66;;;16.31;98.86
24306;BME280;12423;48.768;8.850;2023-03-23T11:25:27;96449.31;;;16.73;97.79
24306;BME280;12423;48.768;8.850;2023-03-23T11:27:29;96445.31;;;16.84;93.89
24306;BME280;12423;48.768;8.850;2023-03-23T11:29:30;96442.34;;;16.79;98.60
24306;BME280;12423;48.768;8.850;2023-03-23T11:31:38;96447.44;;;16.59;96.37
24306;BME280;12423;48.768;8.850;2023-03-23T11:33:54;96441.47;;;16.49;96.76
24306;BME280;12423;48.768;8.850;2023-03-23T11:35:57;96439.72;;;16.56;96.87
24306;BME280;12423;48.768;8.850;2023-03-23T11:37:58;96430.03;;;16.32;97.40
24306;BME280;12423;48.768;8.850;2023-03-23T11:40:16;96439.44;;;16.51;95.68
24306;BME280;12423;48.768;8.850;2023-03-23T11:42:22;96431.44;;;16.43;93.54